createdAt,value
2019-01-03T00:00:50.307Z,4.93
2019-01-03T00:03:37.084Z,5.10
2019-01-03T00:06:24.259Z,4.70
2019-01-03T00:09:10.605Z,4.70
2019-01-03T00:12:05.113Z,4.73
2019-01-03T00:15:02.116Z,5.50
2019-01-03T00:17:49.280Z,5.37
2019-01-03T00:20:36.238Z,5.53
2019-01-03T00:23:27.572Z,4.77
2019-01-03T00:26:31.326Z,5.20
2019-01-03T00:29:18.556Z,5.80
2019-01-03T00:32:15.974Z,5.57
2019-01-03T00:35:03.075Z,5.23
2019-01-03T00:37:51.470Z,5.03
2019-01-03T00:40:38.459Z,5.13
2019-01-03T00:43:29.514Z,6.00
2019-01-03T00:46:17.097Z,5.37
2019-01-03T00:49:05.575Z,5.20
2019-01-03T00:51:56.487Z,5.73
2019-01-03T00:54:44.841Z,5.30
2019-01-03T00:57:31.029Z,6.43
2019-01-03T01:00:25.254Z,6.03
2019-01-03T01:03:12.578Z,5.50
2019-01-03T01:06:19.138Z,5.90
2019-01-03T01:09:16.607Z,5.17
2019-01-03T01:12:03.307Z,5.17
2019-01-03T01:15:10.373Z,5.37
2019-01-03T01:18:13.812Z,5.43
2019-01-03T01:21:03.446Z,6.63
2019-01-03T01:23:50.155Z,5.43
2019-01-03T01:26:38.906Z,5.27
2019-01-03T01:29:27.315Z,5.80
2019-01-03T01:32:30.910Z,6.17
2019-01-03T01:35:26.947Z,5.60
2019-01-03T01:38:07.465Z,5.80
2019-01-03T01:40:54.472Z,6.03
2019-01-03T01:43:49.347Z,5.20
2019-01-03T01:46:40.407Z,5.73
2019-01-03T01:49:28.225Z,5.03
2019-01-03T01:52:15.298Z,5.47
2019-01-03T01:55:03.998Z,5.30
2019-01-03T01:57:57.850Z,5.10
2019-01-03T02:00:44.923Z,5.43
2019-01-03T02:03:31.888Z,5.87
2019-01-03T02:06:19.141Z,6.20
2019-01-03T02:09:05.875Z,5.07
2019-01-03T02:11:57.320Z,5.70
2019-01-03T02:14:45.722Z,5.53
2019-01-03T02:17:33.011Z,6.13
2019-01-03T02:20:19.970Z,7.37
2019-01-03T02:23:07.479Z,5.87
2019-01-03T02:25:54.252Z,6.37
2019-01-03T02:28:54.627Z,6.53
2019-01-03T02:31:41.458Z,7.63
2019-01-03T02:34:39.225Z,7.90
2019-01-03T02:37:26.040Z,6.90
2019-01-03T02:40:26.934Z,6.77
2019-01-03T02:43:17.794Z,7.77
2019-01-03T02:46:05.884Z,6.23
2019-01-03T02:49:12.222Z,7.07
2019-01-03T02:52:10.638Z,6.67
2019-01-03T02:55:02.688Z,6.07
2019-01-03T02:58:09.009Z,5.47
2019-01-03T03:00:55.950Z,5.60
2019-01-03T03:03:40.190Z,6.43
2019-01-03T03:06:42.074Z,5.10
2019-01-03T03:09:33.231Z,5.60
2019-01-03T03:12:21.836Z,5.70
2019-01-03T03:15:19.372Z,5.70
2019-01-03T03:18:08.885Z,6.13
2019-01-03T03:21:03.333Z,5.70
2019-01-03T03:24:00.839Z,6.10
2019-01-03T03:26:39.545Z,5.40
2019-01-03T03:29:27.079Z,6.03
2019-01-03T03:32:13.887Z,5.30
2019-01-03T03:35:04.438Z,5.63
2019-01-03T03:38:01.591Z,5.53
2019-01-03T03:41:03.190Z,5.87
2019-01-03T03:43:57.510Z,5.60
2019-01-03T03:46:42.342Z,5.40
2019-01-03T03:49:29.767Z,5.60
2019-01-03T03:52:27.549Z,6.43
2019-01-03T03:55:14.457Z,5.53
2019-01-03T03:58:05.910Z,4.90
2019-01-03T04:01:03.073Z,5.67
2019-01-03T04:03:50.092Z,5.53
2019-01-03T04:06:38.512Z,4.97
2019-01-03T04:09:29.922Z,5.60
2019-01-03T04:12:24.311Z,5.23
2019-01-03T04:15:18.804Z,5.00
2019-01-03T04:18:25.338Z,5.20
2019-01-03T04:21:15.384Z,5.40
2019-01-03T04:24:02.468Z,5.17
2019-01-03T04:26:56.967Z,4.77
2019-01-03T04:29:45.293Z,4.80
2019-01-03T04:32:32.235Z,5.17
2019-01-03T04:35:20.640Z,4.97
2019-01-03T04:38:04.051Z,6.60
2019-01-03T04:40:56.461Z,9.17
2019-01-03T04:43:53.815Z,5.67
2019-01-03T04:46:51.520Z,5.67
2019-01-03T04:49:47.420Z,6.93
2019-01-03T04:52:44.504Z,5.80
2019-01-03T04:55:39.054Z,6.13
2019-01-03T04:58:25.800Z,6.87
2019-01-03T05:01:57.419Z,6.87
2019-01-03T05:04:44.641Z,6.13
2019-01-03T05:07:33.068Z,7.37
2019-01-03T05:10:20.296Z,6.30
2019-01-03T05:13:07.764Z,7.07
2019-01-03T05:15:56.179Z,7.30
2019-01-03T05:18:50.693Z,8.50
2019-01-03T05:21:41.844Z,7.80
2019-01-03T05:24:36.165Z,7.77
2019-01-03T05:27:36.699Z,10.80
2019-01-03T05:30:44.629Z,9.23
2019-01-03T05:33:31.334Z,9.03
2019-01-03T05:36:28.516Z,6.77
2019-01-03T05:39:34.977Z,6.00
2019-01-03T05:42:23.631Z,6.33
2019-01-03T05:45:11.981Z,5.43
2019-01-03T05:48:00.720Z,5.67
2019-01-03T05:50:47.459Z,5.37
2019-01-03T05:53:40.785Z,5.30
2019-01-03T05:56:37.982Z,6.33
2019-01-03T05:59:25.491Z,6.43
2019-01-03T06:02:12.358Z,5.47
2019-01-03T06:05:00.236Z,5.60
2019-01-03T06:07:54.630Z,6.07
2019-01-03T06:10:42.191Z,6.60
2019-01-03T06:13:33.750Z,7.17
2019-01-03T06:16:21.271Z,8.47
2019-01-03T06:19:09.397Z,7.37
2019-01-03T06:21:58.189Z,7.03
2019-01-03T06:25:00.955Z,7.47
2019-01-03T06:27:48.195Z,7.70
2019-01-03T06:30:36.608Z,7.63
2019-01-03T06:33:39.087Z,8.60
2019-01-03T06:36:39.771Z,7.87
2019-01-03T06:39:43.060Z,6.80
2019-01-03T06:42:46.562Z,8.33
2019-01-03T06:45:35.141Z,7.00
2019-01-03T06:48:38.677Z,8.40
2019-01-03T06:51:33.326Z,8.97
2019-01-03T06:54:20.712Z,7.80
2019-01-03T06:57:15.105Z,10.43
2019-01-03T07:00:12.299Z,10.10
2019-01-03T07:03:02.460Z,8.63
2019-01-03T07:05:49.532Z,7.63
2019-01-03T07:08:36.558Z,10.53
2019-01-03T07:11:23.668Z,15.03
2019-01-03T07:14:12.340Z,15.83
2019-01-03T07:16:59.437Z,11.60
2019-01-03T07:19:48.808Z,10.93
2019-01-03T07:22:46.078Z,12.57
2019-01-03T07:25:33.755Z,19.30
2019-01-03T07:28:20.670Z,17.20
2019-01-03T07:31:15.577Z,13.27
2019-01-03T07:34:02.768Z,11.97
2019-01-03T07:36:50.318Z,8.67
2019-01-03T07:39:50.644Z,9.60
2019-01-03T07:42:51.574Z,8.67
2019-01-03T07:45:40.207Z,7.10
2019-01-03T07:48:34.634Z,7.40
2019-01-03T07:51:31.758Z,10.93
2019-01-03T07:54:26.191Z,12.40
2019-01-03T07:57:26.570Z,9.57
2019-01-03T08:00:15.261Z,10.37
2019-01-03T08:03:02.110Z,12.73
2019-01-03T08:05:50.120Z,8.83
2019-01-03T08:08:37.156Z,8.47
2019-01-03T08:11:24.150Z,8.50
2019-01-03T08:14:13.194Z,10.80
2019-01-03T08:17:11.273Z,11.47
2019-01-03T08:19:59.633Z,10.13
2019-01-03T08:22:46.948Z,8.97
2019-01-03T08:25:47.417Z,8.77
2019-01-03T08:28:36.133Z,7.33
2019-01-03T08:31:22.891Z,7.60
2019-01-03T08:34:09.870Z,8.63
2019-01-03T08:37:10.375Z,9.53
2019-01-03T08:39:58.195Z,8.03
2019-01-03T08:42:49.772Z,8.80
2019-01-03T08:45:41.474Z,8.10
2019-01-03T08:48:48.076Z,9.37
2019-01-03T08:51:36.805Z,8.57
2019-01-03T08:54:27.843Z,9.17
2019-01-03T08:57:24.076Z,8.57
2019-01-03T09:00:27.275Z,8.07
2019-01-03T09:03:14.669Z,9.20
2019-01-03T09:06:05.747Z,7.93
2019-01-03T09:08:52.595Z,9.20
2019-01-03T09:11:52.586Z,9.10
2019-01-03T09:14:43.890Z,8.70
2019-01-03T09:17:34.966Z,11.33
2019-01-03T09:20:22.791Z,8.80
2019-01-03T09:23:20.180Z,10.17
2019-01-03T09:26:07.772Z,11.17
2019-01-03T09:28:58.982Z,10.53
2019-01-03T09:31:47.648Z,10.53
2019-01-03T09:34:44.837Z,9.73
2019-01-03T09:37:28.328Z,9.53
2019-01-03T09:40:19.626Z,11.50
2019-01-03T09:43:07.001Z,9.40
2019-01-03T09:45:43.976Z,10.57
2019-01-03T09:48:07.807Z,11.97
2019-01-03T09:50:37.427Z,10.87
2019-01-03T09:53:06.829Z,10.97
2019-01-03T09:55:36.313Z,9.97
2019-01-03T09:58:06.148Z,12.03
2019-01-03T10:00:35.580Z,11.97
2019-01-03T10:03:04.982Z,12.43
2019-01-03T10:05:34.874Z,11.83
2019-01-03T10:08:04.355Z,13.77
2019-01-03T10:10:33.752Z,10.47
2019-01-03T10:13:03.391Z,11.73
2019-01-03T10:15:33.015Z,11.30
2019-01-03T10:18:02.516Z,10.13
2019-01-03T10:20:32.197Z,9.13
2019-01-03T10:23:01.706Z,10.83
2019-01-03T10:25:31.171Z,13.10
2019-01-03T10:28:00.874Z,10.33
2019-01-03T10:30:30.374Z,10.10
2019-01-03T10:32:59.842Z,9.37
2019-01-03T10:35:29.569Z,9.73
2019-01-03T10:37:58.952Z,8.97
2019-01-03T10:40:28.431Z,11.27
2019-01-03T10:42:58.272Z,11.03
2019-01-03T10:45:27.695Z,9.73
2019-01-03T10:47:57.086Z,9.70
2019-01-03T10:50:27.402Z,9.10
2019-01-03T10:52:56.900Z,13.83
2019-01-03T10:55:26.457Z,10.27
2019-01-03T10:57:56.342Z,8.57
2019-01-03T11:00:25.760Z,9.80
2019-01-03T11:02:55.164Z,9.30
2019-01-03T11:05:24.942Z,10.77
2019-01-03T11:07:54.434Z,10.30
2019-01-03T11:10:23.861Z,9.87
2019-01-03T11:12:53.292Z,9.47
2019-01-03T11:15:22.793Z,10.27
2019-01-03T11:17:52.259Z,9.83
2019-01-03T11:20:22.077Z,8.47
2019-01-03T11:22:51.457Z,9.27
2019-01-03T11:25:20.986Z,10.53
2019-01-03T11:27:50.716Z,8.77
2019-01-03T11:30:20.108Z,10.57
2019-01-03T11:32:49.492Z,10.70
2019-01-03T11:35:19.164Z,10.00
2019-01-03T11:37:48.562Z,9.53
2019-01-03T11:40:18.083Z,10.33
2019-01-03T11:42:47.890Z,10.53
2019-01-03T11:45:17.270Z,10.60
2019-01-03T11:47:46.773Z,11.07
2019-01-03T11:50:16.599Z,12.03
2019-01-03T11:52:46.134Z,11.33
2019-01-03T11:55:15.552Z,10.10
2019-01-03T11:57:45.282Z,9.87
2019-01-03T12:00:14.870Z,7.50
2019-01-03T12:02:44.367Z,9.33
2019-01-03T12:05:14.091Z,9.57
2019-01-03T12:07:43.494Z,13.47
2019-01-03T12:10:13.301Z,9.70
2019-01-03T12:12:42.923Z,8.93
2019-01-03T12:15:12.380Z,8.63
2019-01-03T12:17:41.867Z,8.13
2019-01-03T12:20:11.537Z,9.50
2019-01-03T12:22:40.964Z,9.30
2019-01-03T12:25:10.445Z,9.93
2019-01-03T12:27:40.596Z,9.37
2019-01-03T12:30:11.384Z,9.50
2019-01-03T12:32:40.802Z,10.27
2019-01-03T12:35:10.628Z,10.50
2019-01-03T12:37:40.145Z,10.83
2019-01-03T12:40:09.701Z,13.13
2019-01-03T12:42:39.240Z,10.73
2019-01-03T12:45:09.148Z,12.50
2019-01-03T12:47:38.634Z,10.80
2019-01-03T12:50:10.604Z,11.90
2019-01-03T12:52:40.040Z,10.40
2019-01-03T12:55:09.645Z,10.40
2019-01-03T12:57:39.357Z,9.50
2019-01-03T13:00:12.785Z,10.57
2019-01-03T13:02:42.665Z,10.83
2019-01-03T13:05:12.352Z,10.23
2019-01-03T13:07:42.148Z,10.00
2019-01-03T13:10:13.774Z,7.97
2019-01-03T13:12:43.288Z,9.57
2019-01-03T13:15:12.678Z,9.40
2019-01-03T13:17:42.259Z,10.17
2019-01-03T13:20:11.746Z,10.27
2019-01-03T13:22:41.222Z,8.40
2019-01-03T13:25:10.983Z,8.83
2019-01-03T13:27:40.406Z,9.47
2019-01-03T13:30:11.447Z,7.70
2019-01-03T13:32:41.643Z,10.27
2019-01-03T13:35:11.386Z,9.00
2019-01-03T13:37:41.035Z,11.50
2019-01-03T13:40:10.910Z,9.13
2019-01-03T13:42:40.465Z,7.83
2019-01-03T13:45:10.092Z,7.30
2019-01-03T13:47:39.850Z,6.93
2019-01-03T13:50:09.548Z,6.60
2019-01-03T13:52:39.364Z,7.37
2019-01-03T13:55:09.218Z,6.33
2019-01-03T13:57:38.769Z,7.23
2019-01-03T14:00:10.499Z,7.27
2019-01-03T14:02:40.171Z,7.67
2019-01-03T14:05:09.903Z,6.83
2019-01-03T14:07:39.833Z,6.87
2019-01-03T14:10:09.554Z,7.97
2019-01-03T14:12:39.034Z,10.17
2019-01-03T14:15:08.731Z,10.60
2019-01-03T14:17:38.843Z,8.90
2019-01-03T14:20:11.197Z,9.37
2019-01-03T14:22:40.797Z,7.73
2019-01-03T14:25:10.559Z,8.27
2019-01-03T14:27:40.206Z,8.30
2019-01-03T14:30:11.094Z,8.30
2019-01-03T14:32:40.533Z,7.93
2019-01-03T14:35:11.449Z,8.80
2019-01-03T14:37:42.454Z,8.87
2019-01-03T14:40:11.902Z,8.23
2019-01-03T14:42:41.710Z,7.97
2019-01-03T14:45:11.616Z,9.80
2019-01-03T14:47:41.315Z,10.13
2019-01-03T14:50:11.337Z,10.10
2019-01-03T14:52:40.779Z,12.90
2019-01-03T14:55:11.201Z,10.53
2019-01-03T14:57:40.982Z,11.83
2019-01-03T15:00:14.204Z,10.47
2019-01-03T15:02:43.864Z,11.53
2019-01-03T15:05:15.947Z,13.20
2019-01-03T15:07:45.710Z,11.53
2019-01-03T15:10:15.278Z,12.73
2019-01-03T15:12:44.827Z,12.13
2019-01-03T15:15:14.409Z,14.37
2019-01-03T15:17:43.817Z,13.83
2019-01-03T15:20:13.924Z,12.27
2019-01-03T15:22:43.854Z,14.27
2019-01-03T15:25:13.255Z,15.20
2019-01-03T15:27:42.837Z,13.27
2019-01-03T15:30:13.194Z,17.57
2019-01-03T15:32:42.730Z,16.67
2019-01-03T15:35:12.144Z,16.53
2019-01-03T15:37:41.671Z,16.20
2019-01-03T15:40:11.075Z,16.47
2019-01-03T15:42:40.510Z,16.40
2019-01-03T15:45:10.408Z,18.33
2019-01-03T15:47:39.912Z,23.97
2019-01-03T15:50:09.765Z,21.27
2019-01-03T15:52:39.458Z,20.33
2019-01-03T15:55:08.978Z,18.70
2019-01-03T15:57:39.450Z,18.23
2019-01-03T16:00:10.896Z,17.73
2019-01-03T16:02:40.350Z,18.03
2019-01-03T16:05:09.869Z,16.03
2019-01-03T16:07:39.804Z,16.77
2019-01-03T16:10:09.988Z,16.40
2019-01-03T16:12:39.400Z,18.23
2019-01-03T16:15:09.371Z,16.90
2019-01-03T16:17:38.772Z,17.60
2019-01-03T16:20:08.885Z,18.30
2019-01-03T16:22:38.800Z,19.13
2019-01-03T16:25:08.197Z,19.43
2019-01-03T16:27:37.761Z,18.27
2019-01-03T16:30:08.986Z,18.27
2019-01-03T16:32:38.488Z,19.73
2019-01-03T16:35:07.887Z,22.97
2019-01-03T16:37:37.649Z,20.20
2019-01-03T16:40:08.518Z,19.67
2019-01-03T16:42:45.400Z,21.60
2019-01-03T16:45:14.973Z,22.63
2019-01-03T16:47:44.501Z,23.57
2019-01-03T16:50:16.543Z,24.60
2019-01-03T16:52:46.047Z,20.63
2019-01-03T16:55:15.623Z,20.40
2019-01-03T16:57:45.436Z,21.40
2019-01-03T17:00:16.035Z,22.93
2019-01-03T17:02:45.451Z,20.07
2019-01-03T17:05:14.995Z,18.80
2019-01-03T17:07:44.493Z,16.83
2019-01-03T17:10:16.382Z,16.90
2019-01-03T17:12:46.029Z,17.67
2019-01-03T17:15:15.673Z,14.90
2019-01-03T17:17:45.196Z,16.97
2019-01-03T17:20:14.991Z,18.90
2019-01-03T17:22:44.428Z,24.77
2019-01-03T17:25:14.920Z,19.63
2019-01-03T17:27:44.723Z,18.33
2019-01-03T17:30:14.390Z,19.80
2019-01-03T17:32:43.980Z,19.33
2019-01-03T17:35:13.929Z,18.27
2019-01-03T17:37:43.322Z,17.93
2019-01-03T17:40:14.384Z,18.77
2019-01-03T17:42:46.083Z,16.73
2019-01-03T17:45:15.760Z,15.63
2019-01-03T17:47:45.228Z,14.30
2019-01-03T17:50:15.112Z,14.07
2019-01-03T17:52:44.668Z,13.20
2019-01-03T17:55:14.162Z,15.13
2019-01-03T17:57:43.810Z,16.63
2019-01-03T18:00:16.391Z,14.27
2019-01-03T18:02:45.942Z,14.73
2019-01-03T18:05:15.499Z,15.53
2019-01-03T18:07:44.945Z,18.43
2019-01-03T18:10:15.082Z,17.90
2019-01-03T18:12:44.635Z,16.03
2019-01-03T18:15:14.169Z,16.43
2019-01-03T18:17:43.690Z,16.63
2019-01-03T18:20:15.980Z,16.17
2019-01-03T18:22:45.409Z,16.33
2019-01-03T18:25:14.987Z,14.77
2019-01-03T18:27:44.949Z,14.93
2019-01-03T18:30:14.663Z,14.13
2019-01-03T18:32:44.268Z,13.80
2019-01-03T18:35:14.194Z,17.80
2019-01-03T18:37:43.737Z,15.83
2019-01-03T18:40:15.241Z,14.73
2019-01-03T18:42:45.054Z,15.23
2019-01-03T18:45:17.893Z,16.53
2019-01-03T18:47:47.730Z,13.97
2019-01-03T18:50:19.057Z,15.30
2019-01-03T18:52:48.669Z,14.40
2019-01-03T18:55:18.187Z,13.80
2019-01-03T18:57:48.114Z,15.53
2019-01-03T19:00:17.534Z,14.10
2019-01-03T19:02:46.968Z,15.43
2019-01-03T19:05:16.528Z,14.80
2019-01-03T19:07:46.057Z,13.70
2019-01-03T19:10:15.520Z,13.63
2019-01-03T19:12:45.325Z,13.30
2019-01-03T19:15:14.835Z,11.70
2019-01-03T19:17:44.373Z,14.20
2019-01-03T19:20:13.986Z,12.40
2019-01-03T19:22:43.578Z,11.47
2019-01-03T19:25:15.873Z,13.47
2019-01-03T19:27:45.452Z,10.97
2019-01-03T19:30:15.301Z,10.73
2019-01-03T19:32:44.760Z,12.20
2019-01-03T19:35:14.601Z,10.33
2019-01-03T19:37:44.072Z,11.33
2019-01-03T19:40:15.126Z,12.87
2019-01-03T19:42:46.377Z,11.83
2019-01-03T19:45:15.852Z,12.23
2019-01-03T19:47:45.417Z,10.40
2019-01-03T19:50:20.199Z,13.00
2019-01-03T19:52:49.765Z,11.47
2019-01-03T19:55:19.241Z,10.03
2019-01-03T19:57:49.056Z,8.70
2019-01-03T20:00:18.554Z,9.90
2019-01-03T20:02:48.094Z,7.97
2019-01-03T20:05:17.584Z,8.77
2019-01-03T20:07:47.940Z,8.80
2019-01-03T20:10:17.536Z,8.13
2019-01-03T20:12:47.125Z,7.90
2019-01-03T20:15:16.613Z,8.53
2019-01-03T20:17:46.230Z,7.40
2019-01-03T20:20:15.981Z,8.10
2019-01-03T20:22:45.372Z,7.97
2019-01-03T20:25:14.936Z,8.27
2019-01-03T20:27:44.764Z,8.13
2019-01-03T20:30:14.254Z,8.17
2019-01-03T20:32:43.699Z,6.27
2019-01-03T20:35:13.215Z,7.73
2019-01-03T20:37:42.719Z,7.07
2019-01-03T20:40:12.469Z,7.17
2019-01-03T20:42:42.059Z,7.17
2019-01-03T20:45:12.766Z,7.80
2019-01-03T20:47:42.325Z,7.73
2019-01-03T20:50:12.149Z,7.43
2019-01-03T20:52:42.745Z,7.57
2019-01-03T20:55:12.401Z,8.13
2019-01-03T20:57:41.946Z,7.33
2019-01-03T21:00:14.062Z,7.53
2019-01-03T21:02:43.576Z,12.17
2019-01-03T21:05:13.250Z,7.40
2019-01-03T21:07:42.656Z,7.73
2019-01-03T21:10:13.294Z,8.00
2019-01-03T21:12:43.226Z,7.60
2019-01-03T21:15:15.420Z,7.13
2019-01-03T21:17:44.824Z,6.53
2019-01-03T21:20:15.248Z,7.43
2019-01-03T21:22:44.839Z,6.23
2019-01-03T21:25:14.508Z,7.73
2019-01-03T21:27:44.163Z,7.70
2019-01-03T21:30:16.386Z,11.23
2019-01-03T21:32:45.865Z,7.87
2019-01-03T21:35:15.523Z,7.90
2019-01-03T21:37:45.009Z,6.80
2019-01-03T21:40:14.526Z,6.43
2019-01-03T21:42:44.254Z,6.77
2019-01-03T21:45:13.859Z,6.37
2019-01-03T21:47:43.352Z,6.10
2019-01-03T21:50:13.539Z,6.20
2019-01-03T21:52:42.925Z,6.67
2019-01-03T21:55:12.419Z,6.33
2019-01-03T21:57:42.197Z,7.33
2019-01-03T22:00:13.373Z,6.43
2019-01-03T22:02:42.890Z,7.37
2019-01-03T22:05:12.659Z,6.33
2019-01-03T22:07:42.230Z,5.63
2019-01-03T22:10:12.124Z,6.00
2019-01-03T22:12:41.898Z,6.27
2019-01-03T22:15:11.817Z,5.87
2019-01-03T22:17:41.203Z,5.67
2019-01-03T22:20:11.644Z,6.20
2019-01-03T22:22:41.252Z,6.50
2019-01-03T22:25:10.646Z,6.03
2019-01-03T22:27:40.357Z,6.00
2019-01-03T22:30:11.674Z,6.10
2019-01-03T22:32:41.721Z,6.63
2019-01-03T22:35:11.444Z,5.80
2019-01-03T22:37:40.826Z,11.33
2019-01-03T22:40:10.571Z,6.80
2019-01-03T22:42:40.307Z,5.63
2019-01-03T22:45:11.343Z,5.47
2019-01-03T22:47:40.739Z,5.30
2019-01-03T22:50:11.465Z,5.23
2019-01-03T22:52:41.060Z,6.23
2019-01-03T22:55:10.455Z,5.60
2019-01-03T22:57:40.204Z,5.40
2019-01-03T23:00:30.742Z,6.07
2019-01-03T23:03:00.579Z,5.57
2019-01-03T23:05:30.191Z,5.23
2019-01-03T23:07:59.670Z,5.23
2019-01-03T23:10:29.102Z,6.23
2019-01-03T23:12:58.517Z,5.53
2019-01-03T23:15:28.114Z,5.93
2019-01-03T23:17:57.863Z,5.07
2019-01-03T23:20:27.293Z,5.73
2019-01-03T23:22:56.702Z,5.53
2019-01-03T23:25:26.390Z,4.87
2019-01-03T23:27:55.883Z,5.40
2019-01-03T23:30:25.262Z,5.53
2019-01-03T23:32:54.965Z,5.50
2019-01-03T23:35:24.587Z,5.50
2019-01-03T23:37:54.032Z,5.17
2019-01-03T23:40:23.555Z,5.07
2019-01-03T23:42:53.021Z,5.10
2019-01-03T23:45:24.037Z,5.17
2019-01-03T23:47:58.099Z,4.70
2019-01-03T23:50:32.546Z,4.80
2019-01-03T23:53:02.372Z,4.73
2019-01-03T23:55:35.683Z,5.00
2019-01-03T23:58:05.291Z,5.10
